createdAt,value
2023-03-11T00:03:31.594Z,22.48
2023-03-11T00:08:35.719Z,22.83
2023-03-11T00:13:39.314Z,23.50
2023-03-11T00:18:42.136Z,25.90
2023-03-11T00:23:46.409Z,27.80
2023-03-11T00:28:49.564Z,27.98
2023-03-11T00:33:52.499Z,28.38
2023-03-11T00:38:56.655Z,28.08
2023-03-11T00:43:59.431Z,26.25
2023-03-11T00:49:02.286Z,29.88
2023-03-11T00:54:06.707Z,27.67
2023-03-11T00:59:09.739Z,27.35
2023-03-11T01:04:12.640Z,25.63
2023-03-11T01:09:16.851Z,27.73
2023-03-11T01:14:19.765Z,28.17
2023-03-11T01:19:22.538Z,28.77
2023-03-11T01:24:26.658Z,23.95
2023-03-11T01:29:29.449Z,25.98
2023-03-11T01:34:33.504Z,28.10
2023-03-11T01:39:37.574Z,26.33
2023-03-11T01:44:40.331Z,27.17
2023-03-11T01:49:43.588Z,22.23
2023-03-11T01:54:49.599Z,23.80
2023-03-11T01:59:59.347Z,21.95
2023-03-11T02:05:03.991Z,26.73
2023-03-11T02:10:10.588Z,25.65
2023-03-11T02:15:14.347Z,24.60
2023-03-11T02:20:28.509Z,26.75
2023-03-11T02:25:40.304Z,28.23
2023-03-11T02:30:45.751Z,26.17
2023-03-11T02:35:48.587Z,24.00
2023-03-11T02:40:55.600Z,23.83
2023-03-11T02:46:02.364Z,25.35
2023-03-11T02:51:06.092Z,23.45
2023-03-11T02:56:10.193Z,23.75
2023-03-11T03:01:14.462Z,26.45
2023-03-11T03:06:20.420Z,21.73
2023-03-11T03:11:25.501Z,25.13
2023-03-11T03:16:29.977Z,22.55
2023-03-11T03:21:32.975Z,22.02
2023-03-11T03:26:36.692Z,23.30
2023-03-11T03:31:41.574Z,22.02
2023-03-11T03:36:44.778Z,21.20
2023-03-11T03:41:47.733Z,20.55
2023-03-11T03:46:52.694Z,23.10
2023-03-11T03:51:55.836Z,18.77
2023-03-11T03:57:05.274Z,21.42
2023-03-11T04:02:13.464Z,19.75
2023-03-11T04:07:16.747Z,20.95
2023-03-11T04:12:19.740Z,16.33
2023-03-11T04:17:24.330Z,19.17
2023-03-11T04:22:29.320Z,16.75
2023-03-11T04:27:32.502Z,18.58
2023-03-11T04:32:37.501Z,15.60
2023-03-11T04:37:40.779Z,17.58
2023-03-11T04:42:43.746Z,14.88
2023-03-11T04:47:49.886Z,17.10
2023-03-11T04:52:53.282Z,16.90
2023-03-11T04:57:56.345Z,17.85
2023-03-11T05:03:02.007Z,17.40
2023-03-11T05:08:06.108Z,19.75
2023-03-11T05:13:10.341Z,20.00
2023-03-11T05:18:17.058Z,20.63
2023-03-11T05:23:20.597Z,19.15
2023-03-11T05:28:23.626Z,18.23
2023-03-11T05:33:35.215Z,21.45
2023-03-11T05:38:39.408Z,20.80
2023-03-11T05:43:42.263Z,20.95
2023-03-11T05:48:46.670Z,20.92
2023-03-11T05:53:50.277Z,19.88
2023-03-11T05:59:01.155Z,19.98
2023-03-11T06:04:08.841Z,18.17
2023-03-11T06:09:13.851Z,20.08
2023-03-11T06:14:18.106Z,18.20
2023-03-11T06:19:25.958Z,18.45
2023-03-11T06:24:28.920Z,22.17
2023-03-11T06:29:32.086Z,17.38
2023-03-11T06:34:37.542Z,16.02
2023-03-11T06:39:40.734Z,13.82
2023-03-11T06:44:44.952Z,12.20
2023-03-11T06:49:51.225Z,11.13
2023-03-11T06:54:54.573Z,10.65
2023-03-11T06:59:57.660Z,9.75
2023-03-11T07:05:03.212Z,8.73
2023-03-11T07:10:07.649Z,8.15
2023-03-11T07:15:12.517Z,7.18
2023-03-11T07:20:18.943Z,9.23
2023-03-11T07:25:21.968Z,8.30
2023-03-11T07:30:24.799Z,7.03
2023-03-11T07:35:28.998Z,8.13
2023-03-11T07:40:32.182Z,6.32
2023-03-11T07:45:35.049Z,7.70
2023-03-11T07:50:39.180Z,9.50
2023-03-11T07:55:42.153Z,9.82
2023-03-11T08:00:44.894Z,8.75
2023-03-11T08:05:49.344Z,11.82
2023-03-11T08:10:52.119Z,10.63
2023-03-11T08:15:54.871Z,8.95
2023-03-11T08:20:59.298Z,10.40
2023-03-11T08:26:04.761Z,9.07
2023-03-11T08:31:14.267Z,7.03
2023-03-11T08:36:19.691Z,5.70
2023-03-11T08:41:22.411Z,8.48
2023-03-11T08:46:27.571Z,8.98
2023-03-11T08:51:33.776Z,5.85
2023-03-11T08:56:36.511Z,7.88
2023-03-11T09:01:39.263Z,5.43
2023-03-11T09:06:45.304Z,6.22
2023-03-11T09:11:48.265Z,4.93
2023-03-11T09:16:51.037Z,6.53
2023-03-11T09:21:55.203Z,8.15
2023-03-11T09:26:57.977Z,6.13
2023-03-11T09:32:00.929Z,6.20
2023-03-11T09:37:05.036Z,5.15
2023-03-11T09:42:20.080Z,5.50
2023-03-11T09:47:42.600Z,4.53
2023-03-11T09:52:56.458Z,5.63
2023-03-11T09:58:03.007Z,4.47
2023-03-11T10:03:14.057Z,7.65
2023-03-11T10:08:26.405Z,7.68
2023-03-11T10:13:36.288Z,8.25
2023-03-11T10:19:03.211Z,6.90
2023-03-11T10:24:18.983Z,7.03
2023-03-11T10:29:27.487Z,6.45
2023-03-11T10:34:38.243Z,5.97
2023-03-11T10:39:42.477Z,10.05
2023-03-11T10:44:45.397Z,6.07
2023-03-11T10:49:48.197Z,6.57
2023-03-11T10:55:02.846Z,6.43
2023-03-11T11:00:12.335Z,7.10
2023-03-11T11:05:30.010Z,6.50
2023-03-11T11:10:36.886Z,8.27
2023-03-11T11:15:42.316Z,7.85
2023-03-11T11:20:56.187Z,7.40
2023-03-11T11:26:04.574Z,7.18
2023-03-11T11:36:26.897Z,6.25
2023-03-11T11:41:34.813Z,4.70
2023-03-11T11:46:40.841Z,7.13
2023-03-11T11:51:48.204Z,4.38
2023-03-11T11:56:52.367Z,6.20
2023-03-11T12:02:05.074Z,6.75
2023-03-11T12:07:19.629Z,5.50
2023-03-11T12:12:31.320Z,1.63
2023-03-11T12:17:38.278Z,4.55
2023-03-11T12:23:05.650Z,2.85
2023-03-11T12:28:19.895Z,4.85
2023-03-11T12:33:32.115Z,4.38
2023-03-11T12:38:36.748Z,6.25
2023-03-11T12:44:29.755Z,7.53
2023-03-11T12:49:34.246Z,2.65
2023-03-11T12:54:39.492Z,3.63
2023-03-11T13:00:12.368Z,3.05
2023-03-11T13:05:23.827Z,4.07
2023-03-11T13:10:40.062Z,2.10
2023-03-11T13:15:44.255Z,3.53
2023-03-11T13:20:59.176Z,4.13
2023-03-11T13:26:30.487Z,2.05
2023-03-11T13:31:46.296Z,3.92
2023-03-11T13:37:05.696Z,2.55
2023-03-11T13:42:18.492Z,3.30
2023-03-11T13:47:24.449Z,2.55
2023-03-11T13:52:32.438Z,3.60
2023-03-11T13:57:36.973Z,1.17
2023-03-11T14:02:46.540Z,3.22
2023-03-11T14:07:49.286Z,4.30
2023-03-11T14:12:52.424Z,1.60
2023-03-11T14:18:26.059Z,1.80
2023-03-11T14:23:32.395Z,4.25
2023-03-11T14:28:38.875Z,2.97
2023-03-11T14:33:42.995Z,2.50
2023-03-11T14:38:47.675Z,1.98
2023-03-11T14:43:54.570Z,0.57
2023-03-11T14:49:01.720Z,3.30
2023-03-11T14:54:09.326Z,1.13
2023-03-11T14:59:16.726Z,2.50
2023-03-11T15:04:31.433Z,1.88
2023-03-11T15:09:34.580Z,2.22
2023-03-11T15:14:49.394Z,3.63
2023-03-11T15:19:53.781Z,2.75
2023-03-11T15:24:58.881Z,2.50
2023-03-11T15:30:03.770Z,3.25
2023-03-11T15:35:17.753Z,5.05
2023-03-11T15:40:30.065Z,4.65
2023-03-11T15:45:38.182Z,4.63
2023-03-11T15:50:53.619Z,3.10
2023-03-11T15:56:06.884Z,4.30
2023-03-11T16:01:10.842Z,2.35
2023-03-11T16:06:14.961Z,5.50
2023-03-11T16:11:18.778Z,6.88
2023-03-11T16:16:22.341Z,5.90
2023-03-11T16:21:34.144Z,7.10
2023-03-11T16:26:37.080Z,6.22
2023-03-11T16:31:39.864Z,3.95
2023-03-11T16:36:43.959Z,8.05
2023-03-11T16:41:46.730Z,10.68
2023-03-11T16:46:49.574Z,7.07
2023-03-11T16:51:53.750Z,6.55
2023-03-11T16:56:56.635Z,9.48
2023-03-11T17:01:59.567Z,9.20
2023-03-11T17:07:03.796Z,8.85
2023-03-11T17:12:07.600Z,7.65
2023-03-11T17:17:10.436Z,11.80
2023-03-11T17:22:15.357Z,9.32
2023-03-11T17:27:18.110Z,10.13
2023-03-11T17:32:21.508Z,9.38
2023-03-11T17:37:26.025Z,11.27
2023-03-11T17:42:28.888Z,11.25
2023-03-11T17:47:33.182Z,6.95
2023-03-11T17:52:37.289Z,11.43
2023-03-11T17:57:45.525Z,7.22
2023-03-11T18:02:51.214Z,7.95
2023-03-11T18:07:55.415Z,23.48
2023-03-11T18:12:58.176Z,9.80
2023-03-11T18:18:01.216Z,11.35
2023-03-11T18:23:05.911Z,6.57
2023-03-11T18:28:08.656Z,12.63
2023-03-11T18:33:11.609Z,9.30
2023-03-11T18:38:15.972Z,7.57
2023-03-11T18:43:18.762Z,7.43
2023-03-11T18:48:21.509Z,6.50
2023-03-11T18:53:25.827Z,7.78
2023-03-11T18:58:28.942Z,8.60
2023-03-11T19:03:31.726Z,8.80
2023-03-11T19:08:35.882Z,7.40
2023-03-11T19:13:46.956Z,5.68
2023-03-11T19:18:51.344Z,7.57
2023-03-11T19:23:56.493Z,9.07
2023-03-11T19:28:59.294Z,5.13
2023-03-11T19:34:02.075Z,4.82
2023-03-11T19:39:06.500Z,7.85
2023-03-11T19:44:09.255Z,4.88
2023-03-11T19:49:12.116Z,5.75
2023-03-11T19:54:17.119Z,9.23
2023-03-11T19:59:19.873Z,8.80
2023-03-11T20:04:22.676Z,6.43
2023-03-11T20:09:27.023Z,8.00
2023-03-11T20:14:32.175Z,16.10
2023-03-11T20:19:34.999Z,4.72
2023-03-11T20:24:39.620Z,3.33
2023-03-11T20:29:42.452Z,5.88
2023-03-11T20:34:45.308Z,5.32
2023-03-11T20:39:49.625Z,4.45
2023-03-11T20:44:52.753Z,6.93
2023-03-11T20:49:56.912Z,6.20
2023-03-11T20:55:01.233Z,6.25
2023-03-11T21:00:08.151Z,4.95
2023-03-11T21:05:12.570Z,8.02
2023-03-11T21:10:17.433Z,4.85
2023-03-11T21:15:20.502Z,3.72
2023-03-11T21:20:23.380Z,6.13
2023-03-11T21:25:28.498Z,4.72
2023-03-11T21:30:31.252Z,8.15
2023-03-11T21:35:34.337Z,4.15
2023-03-11T21:40:38.639Z,7.60
2023-03-11T21:45:42.827Z,3.97
2023-03-11T21:50:45.723Z,6.45
2023-03-11T21:55:51.878Z,6.07
2023-03-11T22:00:54.786Z,4.85
2023-03-11T22:05:58.477Z,7.10
2023-03-11T22:11:03.043Z,4.75
2023-03-11T22:16:07.867Z,8.02
2023-03-11T22:21:11.097Z,5.47
2023-03-11T22:26:16.005Z,3.53
2023-03-11T22:31:19.252Z,3.20
2023-03-11T22:36:22.104Z,5.05
2023-03-11T22:41:26.199Z,5.90
2023-03-11T22:46:30.701Z,4.93
2023-03-11T22:51:34.641Z,6.60
2023-03-11T22:56:38.978Z,7.47
2023-03-11T23:01:41.699Z,6.60
2023-03-11T23:06:44.482Z,8.48
2023-03-11T23:11:48.650Z,11.38
2023-03-11T23:16:51.449Z,9.32
2023-03-11T23:21:54.169Z,8.07
2023-03-11T23:26:58.857Z,8.07
2023-03-11T23:32:01.619Z,8.35
2023-03-11T23:37:05.555Z,7.95
2023-03-11T23:42:24.545Z,9.80
2023-03-11T23:47:28.643Z,7.55
2023-03-11T23:52:31.421Z,8.75
2023-03-11T23:57:36.988Z,9.20
